Time;durP1;ratioP1;P1;durP2;ratioP2;P2;SDS_P1;SDS_P2;PMS_P1;PMS_P2;Temp;Humidity;BMP_temperature;BMP_pressure;BME280_temperature;BME280_humidity;BME280_pressure;Samples;Min_cycle;Max_cycle;Signal;HPM_P1;HPM_P2
2022/01/24 00:01:24;;;;;;;0.10;0.10;;;;;;;23.42;17.63;101116.28;5036468;28;20022;-78
2022/01/24 00:03:56;;;;;;;0.10;0.10;;;;;;;23.43;17.46;101111.63;5036784;28;20021;-79
2022/01/24 00:06:21;;;;;;;0.20;0.20;;;;;;;23.41;17.68;101103.69;5036264;28;20048;-78
2022/01/24 00:08:47;;;;;;;0.20;0.20;;;;;;;23.43;17.53;101095.28;5036821;28;20030;-79
2022/01/24 00:11:16;;;;;;;0.10;0.10;;;;;;;23.44;17.52;101092.28;5036780;28;20025;-78
2022/01/24 00:16:57;;;;;;;0.20;0.20;;;;;;;23.47;17.47;101079.22;5036133;28;20049;-78
2022/01/24 00:27:10;;;;;;;0.20;0.20;;;;;;;23.43;17.61;101057.09;5037954;28;20048;-78
2022/01/24 00:29:35;;;;;;;0.10;0.10;;;;;;;23.43;17.47;101077.00;5036172;28;20480;-78
2022/01/24 00:32:00;;;;;;;0.20;0.20;;;;;;;23.43;17.78;101074.25;5035347;28;20095;-77
2022/01/24 00:34:26;;;;;;;0.10;0.10;;;;;;;23.43;17.56;101071.53;5035603;28;20025;-78
2022/01/24 00:36:52;;;;;;;0.20;0.20;;;;;;;23.42;17.61;101067.19;5035700;28;20033;-79
2022/01/24 00:39:17;;;;;;;0.15;0.15;;;;;;;23.41;17.63;101070.97;5035763;28;20099;-79
2022/01/24 00:41:57;;;;;;;0.10;0.10;;;;;;;23.41;17.85;101057.34;5035921;28;20049;-76
2022/01/24 00:46:59;;;;;;;0.10;0.10;;;;;;;23.40;17.79;101047.53;5035247;28;20045;-75
2022/01/24 00:49:45;;;;;;;0.10;0.10;;;;;;;23.40;17.64;101052.97;5035564;28;20052;-75
2022/01/24 00:54:57;;;;;;;0.10;0.10;;;;;;;23.39;17.63;101040.41;5035256;28;20056;-75
2022/01/24 00:57:22;;;;;;;0.10;0.10;;;;;;;23.44;17.64;101031.47;5035418;28;20025;-76
2022/01/24 00:59:48;;;;;;;0.10;0.10;;;;;;;23.42;17.84;101023.53;5035393;28;20037;-76
2022/01/24 01:02:13;;;;;;;0.10;0.10;;;;;;;23.43;17.71;101018.91;5035743;28;20040;-76
2022/01/24 01:18:08;;;;;;;0.10;0.10;;;;;;;23.40;17.67;101003.03;4955228;29;20054;-77
2022/01/24 01:18:46;;;;;;;;;;;;;;;23.72;17.45;100992.13;4955593;29;20070;-75
2022/01/24 01:21:13;;;;;;;0.10;0.10;;;;;;;23.51;17.65;100995.75;4954873;29;19910;-76
2022/01/24 01:23:46;;;;;;;0.10;0.10;;;;;;;23.47;17.50;100995.47;4954538;29;20027;-76
2022/01/24 01:29:23;;;;;;;0.10;0.10;;;;;;;23.44;17.86;100998.72;4917147;29;20533;-79
2022/01/24 01:56:03;;;;;;;0.10;0.10;;;;;;;23.39;17.77;100969.50;4897034;29;20066;-78
2022/01/24 01:58:29;;;;;;;0.10;0.10;;;;;;;23.42;17.99;100968.13;4896913;29;20093;-78
2022/01/24 02:00:55;;;;;;;0.10;0.10;;;;;;;23.42;17.83;100966.25;4896843;29;20037;-78
2022/01/24 02:03:22;;;;;;;0.10;0.10;;;;;;;23.40;18.12;100956.69;4898448;29;20169;-78
2022/01/24 02:05:47;;;;;;;0.10;0.10;;;;;;;23.43;17.89;100962.44;4911734;29;20052;-79
2022/01/24 02:08:12;;;;;;;0.20;0.20;;;;;;;23.42;17.85;100968.97;4934985;29;20038;-79
2022/01/24 02:10:41;;;;;;;0.10;0.10;;;;;;;23.41;17.91;100961.88;4934777;29;20051;-77
2022/01/24 02:13:07;;;;;;;0.10;0.10;;;;;;;23.40;17.77;100949.34;4934587;29;20066;-76
2022/01/24 02:18:52;;;;;;;0.10;0.10;;;;;;;23.44;17.90;100945.00;5013986;28;20030;-76
2022/01/24 02:21:26;;;;;;;0.17;0.17;;;;;;;23.45;17.80;100948.53;5010744;28;20330;-76
2022/01/24 02:23:52;;;;;;;0.20;0.20;;;;;;;23.42;17.99;100952.63;5013935;28;20050;-76
2022/01/24 02:26:20;;;;;;;0.10;0.10;;;;;;;23.42;18.01;100941.72;5014905;28;20640;-76
2022/01/24 02:31:40;;;;;;;0.13;0.13;;;;;;;23.44;18.03;100947.72;5022020;28;20188;-75
2022/01/24 02:34:29;;;;;;;0.10;0.10;;;;;;;23.51;18.13;100938.47;5017321;28;20094;-74
2022/01/24 02:37:00;;;;;;;0.10;0.10;;;;;;;23.42;17.86;100925.34;5033312;28;20032;-76
2022/01/24 02:39:46;;;;;;;0.10;0.10;;;;;;;23.43;18.01;100924.25;5032808;28;20083;-76
2022/01/24 02:53:04;;;;;;;0.10;0.10;;;;;;;23.46;18.06;100935.72;5033543;28;20022;-76
2022/01/24 02:55:29;;;;;;;0.10;0.10;;;;;;;23.39;18.25;100928.59;5033610;28;20379;-75
2022/01/24 02:57:55;;;;;;;0.20;0.20;;;;;;;23.42;18.16;100938.97;5036542;28;20029;-79
2022/01/24 03:00:20;;;;;;;0.10;0.10;;;;;;;23.45;18.14;100948.53;5037238;28;20032;-78
2022/01/24 03:02:46;;;;;;;0.20;0.20;;;;;;;23.41;18.01;100948.22;5037495;28;20026;-79
2022/01/24 03:05:11;;;;;;;0.20;0.20;;;;;;;23.48;17.88;100944.47;5038152;28;20029;-78
2022/01/24 03:07:36;;;;;;;0.17;0.17;;;;;;;23.43;18.14;100940.59;5033293;28;20029;-78
2022/01/24 03:10:09;;;;;;;0.20;0.20;;;;;;;23.43;17.92;100937.88;5033058;28;20476;-79
2022/01/24 03:12:47;;;;;;;0.20;0.20;;;;;;;23.41;17.97;100929.16;5033044;28;20021;-78
2022/01/24 03:15:12;;;;;;;0.17;0.17;;;;;;;23.45;18.20;100926.72;5033021;28;20472;-78
2022/01/24 03:17:37;;;;;;;0.20;0.20;;;;;;;23.44;17.97;100928.63;5034762;28;20029;-79
2022/01/24 03:20:04;;;;;;;0.20;0.20;;;;;;;23.44;18.18;100925.91;5034601;28;20030;-79
2022/01/24 03:22:29;;;;;;;0.15;0.10;;;;;;;23.43;17.93;100907.06;5033815;28;20076;-78
2022/01/24 03:24:56;;;;;;;0.20;0.20;;;;;;;23.43;18.12;100898.88;5033277;28;20456;-78
2022/01/24 03:27:22;;;;;;;0.10;0.10;;;;;;;23.42;18.00;100892.63;5033699;28;20090;-79
2022/01/24 03:29:47;;;;;;;0.20;0.20;;;;;;;23.43;17.87;100890.69;5034088;28;20412;-76
2022/01/24 03:32:12;;;;;;;0.10;0.10;;;;;;;23.47;18.16;100875.44;5032817;28;20527;-75
2022/01/24 03:34:40;;;;;;;0.15;0.15;;;;;;;23.42;18.25;100880.88;5033761;28;20033;-76
2022/01/24 03:37:06;;;;;;;0.20;0.20;;;;;;;23.41;17.96;100873.78;5032993;28;20467;-76
2022/01/24 03:39:31;;;;;;;0.10;0.10;;;;;;;23.43;17.83;100882.53;5032880;28;20029;-74
2022/01/24 03:41:56;;;;;;;0.10;0.10;;;;;;;23.44;18.12;100871.34;5033318;28;20105;-77
2022/01/24 03:44:23;;;;;;;0.20;0.20;;;;;;;23.46;18.18;100864.78;5033136;28;20029;-77
2022/01/24 03:47:02;;;;;;;0.40;0.20;;;;;;;23.44;17.99;100865.91;5032705;28;20029;-75
2022/01/24 03:49:46;;;;;;;0.15;0.15;;;;;;;23.43;18.14;100855.25;5033519;28;20040;-76
2022/01/24 03:52:18;;;;;;;0.10;0.10;;;;;;;23.48;17.95;100857.19;5037406;28;20025;-76
2022/01/24 03:54:45;;;;;;;0.10;0.10;;;;;;;23.43;18.18;100847.88;5036936;28;20048;-76
2022/01/24 03:57:12;;;;;;;0.10;0.10;;;;;;;23.38;18.00;100833.38;5037121;28;20029;-77
2022/01/24 03:59:37;;;;;;;0.10;0.10;;;;;;;23.45;18.13;100836.72;5037818;28;20111;-76
2022/01/24 04:02:03;;;;;;;0.17;0.17;;;;;;;23.42;18.25;100827.16;5037499;28;20026;-76
2022/01/24 04:04:28;;;;;;;0.20;0.20;;;;;;;23.48;18.09;100846.28;5036505;28;20434;-75
2022/01/24 04:06:55;;;;;;;0.10;0.10;;;;;;;23.48;18.17;100838.91;5036510;28;20038;-77
2022/01/24 04:09:20;;;;;;;0.20;0.20;;;;;;;23.56;18.14;100832.97;5036494;28;20052;-76
2022/01/24 04:11:50;;;;;;;0.98;0.10;;;;;;;23.59;18.07;100835.19;5036245;28;20022;-76
2022/01/24 04:14:38;;;;;;;0.10;0.10;;;;;;;23.64;17.86;100826.19;5036297;28;20025;-76
2022/01/24 04:22:14;;;;;;;0.10;0.10;;;;;;;23.74;17.99;100823.50;5035769;28;20017;-77
2022/01/24 04:24:39;;;;;;;0.10;0.10;;;;;;;23.79;17.82;100831.72;5036105;28;20044;-75
2022/01/24 04:27:05;;;;;;;0.22;0.22;;;;;;;23.79;18.11;100822.72;5035930;28;20360;-77
2022/01/24 04:29:32;;;;;;;0.20;0.20;;;;;;;23.81;17.81;100818.66;5020825;28;20546;-77
2022/01/24 04:31:57;;;;;;;0.10;0.10;;;;;;;23.85;17.94;100812.66;5019277;28;20029;-77
2022/01/24 04:34:23;;;;;;;0.20;0.20;;;;;;;23.88;17.74;100823.06;5038250;28;20075;-77
2022/01/24 04:36:48;;;;;;;0.10;0.10;;;;;;;23.91;17.90;100817.88;5018002;28;20348;-76
2022/01/24 04:39:14;;;;;;;1.65;0.20;;;;;;;23.95;18.09;100815.44;5035432;28;20384;-76
2022/01/24 04:41:43;;;;;;;0.10;0.10;;;;;;;23.97;17.87;100802.34;5035677;28;20068;-75
2022/01/24 04:57:03;;;;;;;0.10;0.10;;;;;;;24.07;17.58;100771.53;5035411;28;20026;-76
2022/01/24 04:59:28;;;;;;;0.20;0.20;;;;;;;24.12;17.57;100771.56;5035587;28;20037;-77
2022/01/24 05:01:54;;;;;;;0.10;0.10;;;;;;;24.14;17.82;100772.91;5034544;28;20025;-76
2022/01/24 05:04:19;;;;;;;0.10;0.10;;;;;;;24.16;17.69;100769.91;5035461;28;20033;-77
2022/01/24 05:06:45;;;;;;;0.20;0.20;;;;;;;24.19;17.29;100769.38;5035488;28;20029;-77
2022/01/24 05:09:10;;;;;;;0.32;0.20;;;;;;;24.23;17.53;100764.19;5034950;28;20037;-77
2022/01/24 05:11:48;;;;;;;0.10;0.10;;;;;;;24.26;17.31;100761.75;5017718;28;20103;-76
2022/01/24 05:25:09;;;;;;;0.10;0.10;;;;;;;24.36;17.76;100728.19;5035168;28;20040;-77
2022/01/24 05:27:35;;;;;;;0.10;0.10;;;;;;;24.35;17.57;100732.00;5035096;28;20395;-76
2022/01/24 05:30:00;;;;;;;0.10;0.10;;;;;;;24.36;17.23;100717.25;5034946;28;20025;-76
2022/01/24 05:32:25;;;;;;;0.57;0.20;;;;;;;24.39;17.19;100724.91;5034861;28;20021;-77
2022/01/24 05:34:51;;;;;;;0.10;0.10;;;;;;;24.39;17.33;100730.38;5034924;28;20037;-76
2022/01/24 05:37:16;;;;;;;0.10;0.10;;;;;;;24.38;17.59;100724.06;5035021;28;20475;-76
2022/01/24 05:39:42;;;;;;;1.00;0.40;;;;;;;24.42;17.41;100737.19;5034880;28;20021;-77
2022/01/24 05:42:07;;;;;;;0.38;0.20;;;;;;;24.45;17.42;100728.47;5034656;28;20029;-76
2022/01/24 05:44:33;;;;;;;0.10;0.10;;;;;;;24.48;17.34;100728.72;5034590;28;20032;-76
2022/01/24 05:46:58;;;;;;;0.15;0.15;;;;;;;24.51;17.69;100727.38;5034150;28;20048;-75
2022/01/24 05:49:24;;;;;;;0.10;0.10;;;;;;;24.50;17.27;100729.28;5034600;28;20022;-77
2022/01/24 05:51:49;;;;;;;0.20;0.20;;;;;;;24.52;17.46;100724.34;5034421;28;20032;-77
2022/01/24 05:54:14;;;;;;;0.10;0.10;;;;;;;24.53;17.21;100719.72;5034258;28;20190;-78
2022/01/24 05:56:40;;;;;;;0.10;0.10;;;;;;;24.55;17.33;100707.44;5034706;28;20041;-77
2022/01/24 05:59:05;;;;;;;0.28;0.20;;;;;;;24.56;17.51;100702.81;5034831;28;20029;-76
2022/01/24 06:01:31;;;;;;;0.20;0.20;;;;;;;24.58;17.24;100699.78;5034553;28;20423;-77
2022/01/24 06:03:56;;;;;;;0.10;0.10;;;;;;;24.58;17.19;100700.63;5034030;28;20464;-77
2022/01/24 06:06:21;;;;;;;0.20;0.20;;;;;;;24.58;17.58;100699.78;5034345;28;20044;-78
2022/01/24 06:08:47;;;;;;;0.10;0.10;;;;;;;24.61;17.38;100699.25;5035016;28;20025;-78
2022/01/24 06:11:12;;;;;;;0.20;0.20;;;;;;;24.57;17.27;100687.25;5034633;28;20029;-77
2022/01/24 06:13:38;;;;;;;0.40;0.25;;;;;;;24.56;17.49;100691.91;5035153;28;20456;-77
2022/01/24 06:16:05;;;;;;;0.88;0.20;;;;;;;24.62;17.46;100688.03;5035295;28;20075;-77
2022/01/24 06:18:30;;;;;;;0.13;0.13;;;;;;;24.67;17.16;100700.91;5034898;28;20033;-76
2022/01/24 06:20:57;;;;;;;0.10;0.10;;;;;;;24.66;17.26;100707.44;5038169;28;20025;-78
2022/01/24 06:23:23;;;;;;;0.10;0.10;;;;;;;24.61;17.25;100694.63;5036571;28;20037;-75
2022/01/24 06:25:48;;;;;;;0.20;0.20;;;;;;;24.59;17.63;100698.72;5034928;28;20384;-77
2022/01/24 06:28:13;;;;;;;0.45;0.20;;;;;;;24.66;17.54;100704.72;5038806;28;20025;-77
2022/01/24 06:30:39;;;;;;;0.22;0.22;;;;;;;24.67;17.51;100714.56;5046482;28;20173;-76
2022/01/24 06:33:04;;;;;;;1.13;0.52;;;;;;;24.65;17.43;100711.28;5041351;28;20025;-74
2022/01/24 06:35:30;;;;;;;0.40;0.30;;;;;;;24.72;17.49;100712.63;5041709;28;20048;-80
2022/01/24 06:37:55;;;;;;;1.65;0.77;;;;;;;24.72;17.38;100706.34;5046459;28;20026;-78
2022/01/24 06:40:21;;;;;;;1.17;0.60;;;;;;;24.72;17.83;100709.09;5053210;28;20021;-78
2022/01/24 06:42:46;;;;;;;0.70;0.60;;;;;;;24.73;17.35;100708.81;5054784;28;20094;-78
2022/01/24 06:45:11;;;;;;;1.05;0.60;;;;;;;24.70;17.49;100711.28;5054712;28;20043;-78
2022/01/24 06:47:37;;;;;;;1.20;0.60;;;;;;;24.74;17.81;100706.91;5052823;28;20057;-79
2022/01/24 06:50:04;;;;;;;0.60;0.50;;;;;;;24.80;17.73;100708.53;5056048;28;20029;-79
2022/01/24 06:52:29;;;;;;;0.38;0.30;;;;;;;24.82;17.86;100710.97;5054987;28;20017;-78
2022/01/24 06:54:55;;;;;;;2.30;0.80;;;;;;;24.87;17.62;100706.34;5055863;28;20018;-76
2022/01/24 06:57:20;;;;;;;0.73;0.47;;;;;;;24.83;17.87;100697.03;5055939;28;20018;-79
2022/01/24 06:59:46;;;;;;;0.85;0.50;;;;;;;24.87;17.82;100706.34;5056093;28;20093;-77
2022/01/24 07:02:11;;;;;;;2.55;1.40;;;;;;;24.90;17.81;100711.22;5057145;28;20036;-78
2022/01/24 07:04:39;;;;;;;2.90;1.38;;;;;;;24.84;18.01;100708.81;5057263;28;20029;-75
2022/01/24 07:07:05;;;;;;;3.45;1.27;;;;;;;24.88;17.86;100702.50;5055972;28;20032;-78
2022/01/24 07:09:30;;;;;;;4.18;1.40;;;;;;;24.97;18.03;100710.16;5038740;28;20037;-79
2022/01/24 07:11:56;;;;;;;3.17;1.52;;;;;;;24.89;18.27;100695.13;5055656;28;20036;-77
2022/01/24 07:14:21;;;;;;;4.32;2.20;;;;;;;25.01;18.05;100692.91;5047029;28;20044;-78
2022/01/24 07:19:31;;;;;;;4.28;1.52;;;;;;;25.01;17.84;100686.63;5034304;28;20464;-76
2022/01/24 07:21:57;;;;;;;2.63;1.08;;;;;;;25.01;17.81;100686.63;5039034;28;20037;-79
2022/01/24 07:24:23;;;;;;;3.60;1.30;;;;;;;24.99;18.00;100684.19;5038632;28;20025;-75
2022/01/24 07:26:49;;;;;;;2.10;1.00;;;;;;;25.01;17.81;100675.69;5038338;28;20087;-76
2022/01/24 07:29:14;;;;;;;1.70;0.90;;;;;;;25.02;17.45;100671.84;5038742;28;20037;-75
2022/01/24 07:31:39;;;;;;;1.42;0.93;;;;;;;25.00;17.64;100663.94;5038150;28;20104;-75
2022/01/24 07:34:06;;;;;;;2.28;0.60;;;;;;;25.05;17.39;100666.66;5041317;28;20022;-76
2022/01/24 07:36:31;;;;;;;2.80;0.80;;;;;;;25.03;17.64;100662.56;5038633;28;20037;-75
2022/01/24 07:38:57;;;;;;;3.00;0.80;;;;;;;25.05;17.44;100661.19;5037468;28;20083;-77
2022/01/24 07:41:28;;;;;;;1.92;0.90;;;;;;;25.06;17.55;100654.63;5038645;28;20025;-75
2022/01/24 07:43:54;;;;;;;3.00;1.00;;;;;;;25.03;17.31;100644.25;5039153;28;20116;-74
2022/01/24 07:46:19;;;;;;;1.40;0.55;;;;;;;25.04;17.35;100653.25;5038092;28;20130;-74
2022/01/24 07:48:45;;;;;;;0.80;0.45;;;;;;;25.10;17.41;100642.03;5039000;28;20121;-73
2022/01/24 07:51:10;;;;;;;2.17;0.90;;;;;;;25.07;17.56;100647.22;5037814;28;20129;-76
2022/01/24 07:53:36;;;;;;;4.38;0.80;;;;;;;25.09;17.51;100639.56;4991294;28;20044;-75
2022/01/24 07:56:01;;;;;;;2.45;0.60;;;;;;;25.18;17.47;100635.19;5038965;28;20041;-74
2022/01/24 07:58:28;;;;;;;1.25;0.40;;;;;;;25.11;17.28;100631.91;5039848;28;20372;-75
2022/01/24 08:00:54;;;;;;;1.08;0.30;;;;;;;25.10;17.16;100622.06;5045547;28;20026;-75
2022/01/24 08:03:19;;;;;;;0.90;0.47;;;;;;;25.10;17.15;100619.34;5043263;28;20519;-74
2022/01/24 08:05:45;;;;;;;2.45;1.17;;;;;;;25.12;17.55;100617.13;5038803;28;20033;-75
2022/01/24 08:08:13;;;;;;;0.77;0.35;;;;;;;25.12;17.56;100611.66;5041022;28;20029;-75
2022/01/24 08:10:38;;;;;;;3.72;1.30;;;;;;;25.16;17.30;100609.19;5042330;28;20033;-73
2022/01/24 08:13:05;;;;;;;4.32;1.98;;;;;;;25.10;17.74;100594.72;5037080;28;20022;-75
2022/01/24 08:15:31;;;;;;;1.95;0.52;;;;;;;25.16;17.39;100590.84;5003781;28;20133;-71
2022/01/24 08:17:57;;;;;;;2.65;0.80;;;;;;;25.21;17.54;100577.16;5037402;28;20029;-73
2022/01/24 08:20:24;;;;;;;2.10;0.70;;;;;;;25.19;17.42;100576.63;5020651;28;20083;-75
2022/01/24 08:22:50;;;;;;;1.00;0.40;;;;;;;25.30;17.31;100575.53;5036858;28;20384;-75
2022/01/24 08:25:15;;;;;;;0.88;0.40;;;;;;;25.22;17.34;100573.34;5037519;28;20037;-80
2022/01/24 08:27:46;;;;;;;0.30;0.30;;;;;;;25.26;17.72;100571.69;5037186;28;20025;-80
2022/01/24 08:30:14;;;;;;;0.65;0.43;;;;;;;25.24;17.66;100571.13;5038571;28;20407;-80
2022/01/24 08:32:39;;;;;;;0.40;0.40;;;;;;;25.25;17.70;100571.94;5037385;28;20025;-80
2022/01/24 08:35:05;;;;;;;0.30;0.30;;;;;;;25.30;18.02;100569.22;5037605;28;20387;-80
2022/01/24 08:37:31;;;;;;;0.30;0.30;;;;;;;25.35;17.38;100560.16;5036743;28;20464;-81
2022/01/24 08:39:59;;;;;;;1.65;0.30;;;;;;;25.39;17.27;100563.97;5036378;28;20037;-81
2022/01/24 08:42:39;;;;;;;0.30;0.10;;;;;;;25.40;17.52;100550.00;5037659;28;20029;-79
2022/01/24 08:47:49;;;;;;;0.20;0.20;;;;;;;25.46;17.43;100548.06;5038707;28;20247;-80
2022/01/24 08:50:14;;;;;;;0.30;0.30;;;;;;;25.51;17.15;100542.56;5002566;28;20073;-79
2022/01/24 08:52:40;;;;;;;0.68;0.30;;;;;;;25.46;17.27;100546.16;5039064;28;20436;-80
2022/01/24 08:55:05;;;;;;;0.43;0.35;;;;;;;25.50;17.21;100543.66;5039069;28;20025;-80
2022/01/24 08:57:31;;;;;;;0.77;0.40;;;;;;;25.51;17.27;100560.88;5039447;28;20026;-80
2022/01/24 08:59:56;;;;;;;1.25;0.68;;;;;;;25.51;17.31;100564.47;4969537;28;20135;-78
2022/01/24 09:02:22;;;;;;;0.30;0.30;;;;;;;25.52;17.20;100568.00;5035700;28;20026;-78
2022/01/24 09:04:49;;;;;;;0.52;0.40;;;;;;;25.49;17.12;100566.63;5036413;28;20040;-80
2022/01/24 09:07:16;;;;;;;0.20;0.20;;;;;;;25.57;17.04;100557.84;5036642;28;20044;-79
2022/01/24 09:09:42;;;;;;;0.55;0.30;;;;;;;25.58;17.34;100559.47;5035614;28;20453;-79
2022/01/24 09:12:11;;;;;;;0.57;0.30;;;;;;;25.61;16.96;100545.25;5035834;28;20036;-80
2022/01/24 09:14:39;;;;;;;0.22;0.22;;;;;;;25.56;17.24;100555.38;5035839;28;20048;-80
2022/01/24 09:17:04;;;;;;;0.43;0.43;;;;;;;25.61;16.78;100541.66;5035361;28;20044;-79
2022/01/24 09:19:29;;;;;;;0.63;0.40;;;;;;;25.58;17.16;100537.59;5035786;28;20022;-80
2022/01/24 09:21:55;;;;;;;0.32;0.20;;;;;;;25.58;16.92;100526.66;5035448;28;20032;-76
2022/01/24 09:24:20;;;;;;;0.82;0.40;;;;;;;25.63;16.73;100521.13;5035309;28;20534;-77
2022/01/24 09:26:46;;;;;;;0.30;0.30;;;;;;;25.57;16.74;100519.53;5035498;28;20375;-77
2022/01/24 09:29:11;;;;;;;0.60;0.30;;;;;;;25.67;16.88;100526.84;5035566;28;20076;-75
2022/01/24 09:31:37;;;;;;;0.20;0.20;;;;;;;25.67;16.99;100518.63;5036178;28;20022;-78
2022/01/24 09:34:02;;;;;;;0.13;0.13;;;;;;;25.62;16.80;100511.28;5036053;28;20103;-77
2022/01/24 09:36:27;;;;;;;0.20;0.20;;;;;;;25.66;16.86;100509.63;5035547;28;20029;-76
2022/01/24 09:38:53;;;;;;;0.20;0.20;;;;;;;25.72;16.85;100507.66;5034850;28;20468;-76
2022/01/24 09:41:18;;;;;;;0.55;0.30;;;;;;;25.72;16.78;100504.91;5034790;28;20030;-76
2022/01/24 09:43:43;;;;;;;0.15;0.15;;;;;;;25.74;16.68;100516.38;5035046;28;20123;-77
2022/01/24 09:46:09;;;;;;;0.20;0.20;;;;;;;25.68;16.70;100499.19;5034232;28;20456;-76
2022/01/24 09:48:34;;;;;;;0.20;0.20;;;;;;;25.70;16.71;100500.81;5034055;28;20079;-76
2022/01/24 09:51:00;;;;;;;0.20;0.20;;;;;;;25.80;16.47;100492.53;5016858;28;20035;-78
2022/01/24 09:53:27;;;;;;;0.20;0.20;;;;;;;25.68;16.51;100501.94;5034523;28;20488;-76
2022/01/24 09:55:52;;;;;;;0.15;0.15;;;;;;;25.68;16.82;100501.94;5034682;28;20095;-75
2022/01/24 09:58:18;;;;;;;0.20;0.20;;;;;;;25.78;16.54;100492.00;5034633;28;20456;-74
2022/01/24 10:00:46;;;;;;;0.30;0.20;;;;;;;25.70;16.53;100484.41;5034180;28;20029;-74
2022/01/24 10:03:12;;;;;;;0.25;0.25;;;;;;;25.74;16.58;100482.75;5034047;28;20468;-75
2022/01/24 10:05:39;;;;;;;0.32;0.32;;;;;;;25.73;16.88;100483.81;5034336;28;20042;-75
2022/01/24 10:08:07;;;;;;;0.32;0.30;;;;;;;25.74;16.95;100477.25;5016706;28;20033;-74
2022/01/24 10:10:35;;;;;;;0.40;0.35;;;;;;;25.83;16.69;100489.22;5034203;28;20040;-74
2022/01/24 10:19:14;;;;;;;0.80;0.50;;;;;;;25.75;17.15;100492.56;5034404;28;20033;-75
2022/01/24 10:21:55;;;;;;;1.95;0.30;;;;;;;25.73;16.97;100498.31;5033914;28;20023;-75
2022/01/24 10:24:53;;;;;;;1.23;0.40;;;;;;;25.82;17.09;100493.06;5016231;28;20037;-75
2022/01/24 10:27:19;;;;;;;1.63;0.70;;;;;;;25.75;17.34;100487.94;4953953;28;20055;-75
2022/01/24 10:29:49;;;;;;;3.30;1.55;;;;;;;25.77;17.30;100491.19;4954128;29;20023;-75
2022/01/24 10:32:43;;;;;;;5.30;2.47;;;;;;;25.81;17.14;100496.91;4947365;29;20028;-76
2022/01/24 10:35:37;;;;;;;10.43;4.30;;;;;;;25.70;17.22;100489.88;4934948;29;20043;-75
2022/01/24 10:38:54;;;;;;;6.15;2.40;;;;;;;25.78;17.23;100492.00;4935827;29;20047;-75
2022/01/24 10:43:50;;;;;;;2.00;0.70;;;;;;;25.90;17.07;100492.44;4934508;28;19915;-75
2022/01/24 10:46:26;;;;;;;5.45;1.25;;;;;;;25.90;16.78;100494.34;4935071;29;20054;-76
2022/01/24 10:49:07;;;;;;;1.65;0.88;;;;;;;25.84;17.18;100485.38;4917995;29;20087;-76
2022/01/24 10:51:39;;;;;;;1.27;0.68;;;;;;;25.84;17.09;100486.19;4887774;29;20035;-75
2022/01/24 10:54:05;;;;;;;2.72;0.80;;;;;;;25.82;17.45;100482.13;4934846;29;20036;-74
2022/01/24 10:56:38;;;;;;;8.23;0.70;;;;;;;25.82;17.22;100480.19;4934544;29;20044;-75
2022/01/24 10:59:15;;;;;;;0.88;0.50;;;;;;;25.83;17.38;100464.56;4933572;29;20032;-75
2022/01/24 11:01:45;;;;;;;0.52;0.32;;;;;;;25.77;16.90;100457.53;4934909;29;20062;-74
2022/01/24 11:04:13;;;;;;;0.90;0.50;;;;;;;25.78;17.02;100457.22;4972436;28;20034;-75
2022/01/24 11:06:51;;;;;;;1.23;0.70;;;;;;;25.85;17.18;100449.50;4976700;28;20481;-73
2022/01/24 11:09:30;;;;;;;2.90;1.63;;;;;;;25.81;17.13;100436.69;4994290;28;20038;-72
2022/01/24 11:12:08;;;;;;;4.20;2.40;;;;;;;25.87;17.00;100440.97;4994460;28;20022;-75
2022/01/24 11:14:36;;;;;;;4.13;2.20;;;;;;;25.82;17.18;100430.91;4994281;28;20038;-76
2022/01/24 11:17:02;;;;;;;4.28;2.05;;;;;;;25.86;17.02;100423.75;4994505;28;20097;-76
2022/01/24 11:19:32;;;;;;;5.28;1.88;;;;;;;25.79;16.77;100420.53;4994981;28;20022;-81
2022/01/24 11:22:00;;;;;;;4.47;2.15;;;;;;;25.82;16.87;100424.63;4995741;28;20362;-82
2022/01/24 11:24:41;;;;;;;5.10;2.65;;;;;;;25.89;16.79;100416.91;4994754;28;20037;-82
2022/01/24 11:27:08;;;;;;;4.70;2.30;;;;;;;25.83;16.89;100410.63;4993958;28;20041;-80
2022/01/24 11:29:36;;;;;;;6.15;3.13;;;;;;;25.89;17.18;100411.41;4990911;28;20049;-81
2022/01/24 11:32:20;;;;;;;6.80;3.13;;;;;;;25.91;16.99;100398.25;4997211;28;20018;-81
2022/01/24 11:34:49;;;;;;;;;;;;;;;26.14;17.00;100412.28;4994652;28;20034;-79
2022/01/24 11:37:40;;;;;;;3.35;1.85;;;;;;;26.06;17.17;100416.47;5013584;28;19909;-81
2022/01/24 11:40:17;;;;;;;4.60;2.10;;;;;;;26.02;17.30;100405.25;4963620;28;20046;-82
2022/01/24 11:42:45;;;;;;;4.45;1.55;;;;;;;25.96;17.26;100395.50;5014121;28;20033;-84
2022/01/24 11:45:16;;;;;;;2.20;1.02;;;;;;;25.98;17.30;100398.75;5014884;28;20030;-82
2022/01/24 11:47:42;;;;;;;1.90;1.00;;;;;;;25.95;17.38;100393.84;5000377;28;20097;-83
2022/01/24 11:50:39;;;;;;;2.72;1.00;;;;;;;25.96;17.51;100395.50;4977807;28;20034;-83
2022/01/24 11:53:27;;;;;;;2.75;0.88;;;;;;;25.98;17.38;100409.69;4976027;28;20057;-81
2022/01/24 11:55:57;;;;;;;4.10;1.00;;;;;;;25.96;17.26;100408.38;4992912;28;20034;-80
2022/01/24 11:58:29;;;;;;;11.43;5.63;;;;;;;26.08;16.94;100418.91;4978998;28;20117;-81
2022/01/24 12:00:56;;;;;;;9.20;2.92;;;;;;;26.01;17.41;100414.59;4994297;28;20038;-81
2022/01/24 12:03:26;;;;;;;6.15;2.10;;;;;;;25.96;17.58;100422.88;4995877;28;20030;-82
2022/01/24 12:05:53;;;;;;;4.50;1.92;;;;;;;26.04;17.42;100433.19;4995821;28;20189;-82
2022/01/24 12:08:43;;;;;;;4.35;1.23;;;;;;;26.07;17.45;100425.50;4995646;28;20037;-82
2022/01/24 12:11:38;;;;;;;2.15;1.27;;;;;;;26.16;17.32;100410.84;4997111;28;20054;-79
2022/01/24 12:14:13;;;;;;;3.17;1.77;;;;;;;26.10;17.10;100412.03;4996086;28;20065;-78
2022/01/24 12:16:41;;;;;;;2.60;1.45;;;;;;;26.09;17.08;100412.31;4995867;28;20053;-78
2022/01/24 12:19:07;;;;;;;3.78;2.30;;;;;;;26.20;17.16;100408.38;4994871;28;20066;-79
2022/01/24 12:21:36;;;;;;;2.42;1.30;;;;;;;26.16;16.81;100407.31;5010262;28;20034;-79
2022/01/24 12:24:07;;;;;;;2.15;0.82;;;;;;;26.10;16.86;100401.09;5016381;28;20125;-80
2022/01/24 12:26:37;;;;;;;1.38;0.80;;;;;;;26.08;16.97;100397.81;4998876;28;20030;-78
2022/01/24 12:29:11;;;;;;;3.33;0.90;;;;;;;26.15;16.74;100403.75;5015746;28;20057;-79
2022/01/24 12:31:59;;;;;;;1.65;0.65;;;;;;;26.16;16.67;100397.16;5015884;28;20026;-79
2022/01/24 12:34:27;;;;;;;0.60;0.50;;;;;;;26.09;16.70;100398.63;4995506;28;20477;-78
2022/01/24 12:37:04;;;;;;;2.75;0.60;;;;;;;26.08;16.86;100394.25;4996065;28;20030;-78
2022/01/24 12:39:52;;;;;;;16.00;6.45;;;;;;;26.15;16.73;100400.22;4978295;28;20034;-78
2022/01/24 12:42:38;;;;;;;5.47;2.45;;;;;;;26.07;16.52;100400.84;4994379;28;20031;-76
2022/01/24 12:48:15;;;;;;;1.55;0.50;;;;;;;26.13;16.66;100375.84;4995246;28;20089;-76
2022/01/24 12:50:46;;;;;;;1.75;0.30;;;;;;;26.04;16.56;100358.44;4995043;28;20100;-77
2022/01/24 12:53:14;;;;;;;1.55;0.50;;;;;;;26.15;16.44;100359.13;4995077;28;20050;-76
2022/01/24 12:55:40;;;;;;;0.55;0.30;;;;;;;26.07;16.64;100362.53;4994779;28;20037;-76
2022/01/24 12:58:05;;;;;;;3.13;0.45;;;;;;;26.20;16.58;100359.06;4995675;28;20034;-76
2022/01/24 13:00:32;;;;;;;0.68;0.40;;;;;;;26.16;16.66;100349.78;4959028;28;20039;-76
2022/01/24 13:02:58;;;;;;;0.75;0.30;;;;;;;26.08;16.57;100358.66;4990480;28;20027;-75
2022/01/24 13:05:23;;;;;;;0.65;0.40;;;;;;;26.15;16.30;100365.41;4977815;28;20139;-77
2022/01/24 13:07:55;;;;;;;0.95;0.40;;;;;;;26.08;16.32;100369.59;4994632;28;20462;-74
2022/01/24 13:10:22;;;;;;;0.20;0.20;;;;;;;25.99;16.38;100355.75;5005069;28;20092;-75
2022/01/24 13:13:05;;;;;;;0.52;0.20;;;;;;;26.10;16.63;100368.22;5016922;28;20087;-74
2022/01/24 13:21:11;;;;;;;0.28;0.20;;;;;;;26.02;16.52;100360.66;5002123;28;20036;-76
2022/01/24 13:23:41;;;;;;;0.38;0.32;;;;;;;25.97;16.52;100372.47;5016377;28;20032;-77
2022/01/24 13:26:08;;;;;;;3.67;0.90;;;;;;;26.01;16.49;100368.06;5016646;28;20026;-76
2022/01/24 13:28:33;;;;;;;1.38;0.68;;;;;;;25.91;16.70;100373.63;4966261;28;20113;-78
2022/01/24 13:31:01;;;;;;;1.52;0.80;;;;;;;25.94;16.72;100381.28;5018325;28;20037;-79
2022/01/24 13:33:27;;;;;;;1.52;0.55;;;;;;;25.99;16.56;100383.97;5000640;28;20017;-78
2022/01/24 13:36:05;;;;;;;1.70;0.88;;;;;;;25.98;16.59;100387.00;5019019;28;20056;-79
2022/01/24 13:38:41;;;;;;;0.40;0.30;;;;;;;25.97;16.75;100375.19;4986550;28;20037;-79